Time;durP1;ratioP1;P1;durP2;ratioP2;P2;SDS_P1;SDS_P2;PMS_P1;PMS_P2;Temp;Humidity;BMP_temperature;BMP_pressure;BME280_temperature;BME280_humidity;BME280_pressure;Samples;Min_cycle;Max_cycle;Signal;HPM_P1;HPM_P2
2023/07/05 00:01:23;;;;;;;0.00;0.00;;;;;;;;;;7373985;19;20171;-70
2023/07/05 00:03:53;;;;;;;0.00;0.00;;;;;;;;;;7371091;19;20172;-69
2023/07/05 00:06:22;;;;;;;0.00;0.00;;;;;;;;;;7372093;19;20795;-69
2023/07/05 00:08:53;;;;;;;0.00;0.00;;;17.50;99.90;;;;;;7370891;19;20684;-69
2023/07/05 00:11:22;;;;;;;0.00;0.00;;;17.50;99.90;;;;;;7373273;19;20510;-69
2023/07/05 00:13:54;;;;;;;0.00;0.00;;;17.40;99.90;;;;;;7370646;19;20192;-70
2023/07/05 00:16:23;;;;;;;0.00;0.00;;;17.40;99.90;;;;;;7370702;19;20148;-69
2023/07/05 00:18:52;;;;;;;0.00;0.00;;;17.40;99.90;;;;;;7371729;19;20172;-69
2023/07/05 00:21:21;;;;;;;0.00;0.00;;;17.30;99.90;;;;;;7372268;19;20177;-69
2023/07/05 00:23:53;;;;;;;0.00;0.00;;;17.30;99.90;;;;;;7371186;19;20172;-70
2023/07/05 00:26:24;;;;;;;0.00;0.00;;;17.30;99.90;;;;;;7371767;19;20145;-69
2023/07/05 00:28:53;;;;;;;0.00;0.00;;;17.30;99.90;;;;;;7371512;19;20152;-69
2023/07/05 00:31:22;;;;;;;0.00;0.00;;;17.30;99.90;;;;;;7372463;19;20176;-69
2023/07/05 00:33:51;;;;;;;0.00;0.00;;;17.30;99.90;;;;;;7370949;19;20197;-70
2023/07/05 00:36:20;;;;;;;0.00;0.00;;;17.30;99.90;;;;;;7372423;19;20170;-71
2023/07/05 00:38:48;;;;;;;0.00;0.00;;;17.30;99.90;;;;;;7372494;19;20157;-69
2023/07/05 00:41:21;;;;;;;0.00;0.00;;;17.30;99.90;;;;;;7363547;19;20184;-69
2023/07/05 00:43:51;;;;;;;0.00;0.00;;;17.30;99.90;;;;;;7371079;19;20180;-70
2023/07/05 00:46:24;;;;;;;0.00;0.00;;;17.30;99.90;;;;;;7371642;19;20188;-68
2023/07/05 00:48:56;;;;;;;0.00;0.00;;;17.30;99.90;;;;;;7371784;19;20203;-69
2023/07/05 00:51:28;;;;;;;0.00;0.00;;;17.30;99.90;;;;;;7372258;19;20232;-70
2023/07/05 00:54:01;;;;;;;0.00;0.00;;;17.30;99.90;;;;;;7371842;19;20189;-69
2023/07/05 00:56:39;;;;;;;0.00;0.00;;;17.30;99.90;;;;;;7369027;19;20253;-69
2023/07/05 00:59:10;;;;;;;0.00;0.00;;;17.30;99.90;;;;;;7372463;19;20152;-69
2023/07/05 01:01:39;;;;;;;0.00;0.00;;;17.30;99.90;;;;;;7369546;19;20168;-70
2023/07/05 01:04:08;;;;;;;0.00;0.00;;;17.30;99.90;;;;;;7375962;19;20200;-69
2023/07/05 01:06:39;;;;;;;0.00;0.00;;;17.30;99.90;;;;;;7378254;19;20152;-69
2023/07/05 01:09:08;;;;;;;0.00;0.00;;;17.30;99.90;;;;;;7379436;19;20160;-70
2023/07/05 01:11:51;;;;;;;0.00;0.00;;;17.30;99.90;;;;;;7377422;19;20167;-68
2023/07/05 01:14:28;;;;;;;0.00;0.00;;;17.30;99.90;;;;;;7375479;19;20184;-70
2023/07/05 01:17:08;;;;;;;0.00;0.00;;;17.30;99.90;;;;;;7378365;19;20152;-68
2023/07/05 01:20:00;;;;;;;0.00;0.00;;;17.30;99.90;;;;;;7376933;19;20163;-70
2023/07/05 01:22:58;;;;;;;0.00;0.00;;;17.30;99.90;;;;;;7377503;19;20163;-69
2023/07/05 01:25:55;;;;;;;0.00;0.00;;;17.20;99.90;;;;;;7376690;19;20157;-69
2023/07/05 01:28:55;;;;;;;0.00;0.00;;;17.20;99.90;;;;;;7377718;19;20547;-69
2023/07/05 01:31:52;;;;;;;0.00;0.00;;;17.20;99.90;;;;;;7377222;19;20216;-69
2023/07/05 01:34:33;;;;;;;0.00;0.00;;;17.20;99.90;;;;;;7375971;19;20207;-70
2023/07/05 01:37:02;;;;;;;0.00;0.00;;;17.20;99.90;;;;;;7377217;19;20160;-69
2023/07/05 01:39:31;;;;;;;0.00;0.00;;;17.10;99.90;;;;;;7377816;19;20161;-69
2023/07/05 01:42:00;;;;;;;0.00;0.00;;;17.10;99.90;;;;;;7377989;19;20144;-70
2023/07/05 01:44:29;;;;;;;0.00;0.00;;;17.10;99.90;;;;;;7375632;19;20176;-69
2023/07/05 01:47:09;;;;;;;0.00;0.00;;;17.10;99.90;;;;;;7378623;19;20161;-70
2023/07/05 01:49:48;;;;;;;0.00;0.00;;;17.10;99.90;;;;;;7376026;19;20157;-70
2023/07/05 01:52:27;;;;;;;0.00;0.00;;;17.10;99.90;;;;;;7376973;19;20152;-70
2023/07/05 01:55:05;;;;;;;0.00;0.00;;;17.10;99.90;;;;;;7371483;19;20180;-69
2023/07/05 01:57:39;;;;;;;0.00;0.00;;;17.10;99.90;;;;;;7375880;19;20160;-67
2023/07/05 02:00:11;;;;;;;0.00;0.00;;;17.10;99.90;;;;;;7377123;19;20184;-70
2023/07/05 02:02:47;;;;;;;0.00;0.00;;;17.10;99.90;;;;;;7377044;19;20131;-70
2023/07/05 02:05:18;;;;;;;0.00;0.00;;;17.10;99.90;;;;;;7374862;19;20152;-70
2023/07/05 02:07:48;;;;;;;0.00;0.00;;;17.20;99.90;;;;;;7375397;19;20155;-69
2023/07/05 02:10:17;;;;;;;0.00;0.00;;;17.20;99.90;;;;;;7375090;19;20153;-69
2023/07/05 02:12:46;;;;;;;0.00;0.00;;;17.20;99.90;;;;;;7373541;19;20207;-70
2023/07/05 02:15:15;;;;;;;0.00;0.00;;;17.20;99.90;;;;;;7374486;19;20157;-70
2023/07/05 02:17:47;;;;;;;0.00;0.00;;;17.20;99.90;;;;;;7372487;19;20152;-69
2023/07/05 02:20:16;;;;;;;0.00;0.00;;;17.20;99.90;;;;;;7375686;19;20162;-70
2023/07/05 02:22:45;;;;;;;0.00;0.00;;;17.20;99.90;;;;;;7375669;19;20149;-70
2023/07/05 02:25:14;;;;;;;0.00;0.00;;;17.20;99.90;;;;;;7374439;19;20273;-68
2023/07/05 02:27:42;;;;;;;0.00;0.00;;;17.20;99.90;;;;;;7376350;19;20164;-69
2023/07/05 02:30:13;;;;;;;0.00;0.00;;;17.20;99.90;;;;;;7376282;19;20156;-69
2023/07/05 02:32:42;;;;;;;0.10;0.10;;;17.20;99.90;;;;;;7375441;19;20172;-68
2023/07/05 02:35:13;;;;;;;0.00;0.00;;;17.10;99.90;;;;;;7374289;19;20177;-69
2023/07/05 02:37:42;;;;;;;0.00;0.00;;;17.10;99.90;;;;;;7374870;19;20144;-70
2023/07/05 02:40:11;;;;;;;0.00;0.00;;;17.20;99.90;;;;;;7375567;19;20168;-68
2023/07/05 02:42:40;;;;;;;0.00;0.00;;;17.10;99.90;;;;;;7371550;19;20148;-70
2023/07/05 02:45:10;;;;;;;0.00;0.00;;;17.10;99.90;;;;;;7375437;19;20160;-69
2023/07/05 02:47:39;;;;;;;0.00;0.00;;;17.10;99.90;;;;;;7375377;19;20160;-69
2023/07/05 02:50:08;;;;;;;0.00;0.00;;;17.10;99.90;;;;;;7374901;19;20160;-69
2023/07/05 02:52:40;;;;;;;0.00;0.00;;;17.10;99.90;;;;;;7375416;19;20153;-69
2023/07/05 02:55:09;;;;;;;0.00;0.00;;;17.10;99.90;;;;;;7373924;19;20187;-69
2023/07/05 02:57:38;;;;;;;0.00;0.00;;;17.10;99.90;;;;;;7374192;19;20165;-69
2023/07/05 03:00:09;;;;;;;0.00;0.00;;;17.10;99.90;;;;;;7374083;19;20159;-69
2023/07/05 03:02:38;;;;;;;0.00;0.00;;;17.10;99.90;;;;;;7375065;19;20228;-67
2023/07/05 03:05:10;;;;;;;0.00;0.00;;;17.10;99.90;;;;;;7372462;19;20176;-68
2023/07/05 03:07:42;;;;;;;0.00;0.00;;;17.10;99.90;;;;;;7374121;19;20156;-70
2023/07/05 03:10:11;;;;;;;0.00;0.00;;;17.10;99.90;;;;;;7375785;19;20171;-70
2023/07/05 03:12:41;;;;;;;0.00;0.00;;;17.00;99.90;;;;;;7374195;19;20153;-68
2023/07/05 03:15:11;;;;;;;0.00;0.00;;;17.00;99.90;;;;;;7374893;19;20152;-70
2023/07/05 03:17:41;;;;;;;0.00;0.00;;;17.00;99.90;;;;;;7372819;19;20181;-68
2023/07/05 03:20:11;;;;;;;0.00;0.00;;;17.00;99.90;;;;;;7374827;19;20157;-69
2023/07/05 03:22:43;;;;;;;0.00;0.00;;;17.00;99.90;;;;;;7374039;19;20191;-67
2023/07/05 03:25:11;;;;;;;0.00;0.00;;;17.00;99.90;;;;;;7372988;19;20149;-70
2023/07/05 03:27:40;;;;;;;0.00;0.00;;;17.00;99.90;;;;;;7371632;19;20164;-69
2023/07/05 03:30:10;;;;;;;0.00;0.00;;;17.00;99.90;;;;;;7374120;19;20153;-68
2023/07/05 03:32:43;;;;;;;0.00;0.00;;;17.00;99.90;;;;;;7373635;19;20177;-68
2023/07/05 03:35:12;;;;;;;0.00;0.00;;;17.00;99.90;;;;;;7373146;19;20145;-70
2023/07/05 03:37:47;;;;;;;0.00;0.00;;;17.00;99.90;;;;;;7373590;19;20165;-69
2023/07/05 03:40:16;;;;;;;0.00;0.00;;;17.00;99.90;;;;;;7374888;19;20156;-68
2023/07/05 03:42:44;;;;;;;0.00;0.00;;;17.00;99.90;;;;;;7372927;19;20160;-69
2023/07/05 03:45:13;;;;;;;0.00;0.00;;;17.00;99.90;;;;;;7373246;19;20144;-69
2023/07/05 03:47:42;;;;;;;0.00;0.00;;;17.00;99.90;;;;;;7373376;19;20165;-70
2023/07/05 03:50:11;;;;;;;0.00;0.00;;;17.10;99.90;;;;;;7375080;19;20149;-69
2023/07/05 03:52:40;;;;;;;0.00;0.00;;;17.00;99.90;;;;;;7373590;19;20160;-69
2023/07/05 03:55:12;;;;;;;0.00;0.00;;;17.00;99.90;;;;;;7372920;19;20148;-69
2023/07/05 03:57:41;;;;;;;0.00;0.00;;;17.00;99.90;;;;;;7372086;19;20174;-67
2023/07/05 04:00:11;;;;;;;0.00;0.00;;;17.00;99.90;;;;;;7372207;19;20152;-69
2023/07/05 04:02:44;;;;;;;0.00;0.00;;;17.00;99.90;;;;;;7372053;19;20140;-69
2023/07/05 04:05:14;;;;;;;0.00;0.00;;;17.00;99.90;;;;;;7372113;19;20148;-69
2023/07/05 04:07:42;;;;;;;0.00;0.00;;;17.00;99.90;;;;;;7373534;19;20156;-69
2023/07/05 04:10:14;;;;;;;0.00;0.00;;;17.00;99.90;;;;;;7374650;19;20152;-69
2023/07/05 04:12:43;;;;;;;0.00;0.00;;;17.00;99.90;;;;;;7370174;19;20187;-70
2023/07/05 04:15:13;;;;;;;0.00;0.00;;;17.00;99.90;;;;;;7372675;19;20223;-70
2023/07/05 04:17:41;;;;;;;0.00;0.00;;;17.10;99.90;;;;;;7371994;19;20148;-70
2023/07/05 04:20:11;;;;;;;0.00;0.00;;;17.10;99.90;;;;;;7373854;19;20188;-73
2023/07/05 04:22:42;;;;;;;0.00;0.00;;;17.10;99.90;;;;;;7373922;19;20152;-72
2023/07/05 04:25:14;;;;;;;0.00;0.00;;;17.10;99.90;;;;;;7373062;19;20175;-72
2023/07/05 04:27:43;;;;;;;0.00;0.00;;;17.10;99.90;;;;;;7372715;19;20180;-72
2023/07/05 04:30:13;;;;;;;0.00;0.00;;;17.10;99.90;;;;;;7373261;19;20145;-71
2023/07/05 04:32:42;;;;;;;0.00;0.00;;;17.10;99.90;;;;;;7372090;19;20156;-70
2023/07/05 04:35:13;;;;;;;0.00;0.00;;;17.10;99.90;;;;;;7372435;19;20157;-73
2023/07/05 04:37:42;;;;;;;0.00;0.00;;;17.10;99.90;;;;;;7376910;19;20157;-72
2023/07/05 04:40:14;;;;;;;0.00;0.00;;;17.00;99.90;;;;;;7380305;19;20153;-73
2023/07/05 04:42:43;;;;;;;0.00;0.00;;;17.00;99.90;;;;;;7379682;19;20190;-71
2023/07/05 04:45:12;;;;;;;0.00;0.00;;;17.00;99.90;;;;;;7378617;19;20228;-72
2023/07/05 04:47:41;;;;;;;0.00;0.00;;;16.90;99.90;;;;;;7379287;19;20148;-71
2023/07/05 04:50:10;;;;;;;0.00;0.00;;;16.90;99.90;;;;;;7381034;19;20190;-72
2023/07/05 04:52:39;;;;;;;0.10;0.10;;;16.90;99.90;;;;;;7380526;19;20190;-72
2023/07/05 04:55:08;;;;;;;0.00;0.00;;;16.90;99.90;;;;;;7377363;19;20152;-72
2023/07/05 04:57:42;;;;;;;0.00;0.00;;;16.90;99.90;;;;;;7379069;19;20149;-72
2023/07/05 05:00:14;;;;;;;0.00;0.00;;;16.90;99.90;;;;;;7379459;19;20156;-72
2023/07/05 05:02:43;;;;;;;0.00;0.00;;;16.90;99.90;;;;;;7378786;19;20169;-71
2023/07/05 05:05:12;;;;;;;0.00;0.00;;;16.90;99.90;;;;;;7378088;19;20165;-72
2023/07/05 05:07:41;;;;;;;0.00;0.00;;;16.90;99.90;;;;;;7378592;19;20156;-72
2023/07/05 05:10:10;;;;;;;0.00;0.00;;;16.90;99.90;;;;;;7379585;19;20156;-71
2023/07/05 05:12:42;;;;;;;0.00;0.00;;;16.90;99.90;;;;;;7379315;19;20149;-72
2023/07/05 05:15:11;;;;;;;0.10;0.10;;;17.00;99.90;;;;;;7375811;19;20156;-72
2023/07/05 05:17:40;;;;;;;0.00;0.00;;;16.90;99.90;;;;;;7378151;19;20156;-71
2023/07/05 05:20:10;;;;;;;0.00;0.00;;;16.90;99.90;;;;;;7377368;19;20157;-71
2023/07/05 05:22:39;;;;;;;0.00;0.00;;;17.00;99.90;;;;;;7378860;19;20152;-71
2023/07/05 05:25:08;;;;;;;0.00;0.00;;;17.00;99.90;;;;;;7377204;19;20173;-72
2023/07/05 05:27:37;;;;;;;0.00;0.00;;;17.00;99.90;;;;;;7378468;19;20149;-72
2023/07/05 05:30:10;;;;;;;0.00;0.00;;;17.00;99.90;;;;;;7377933;19;20155;-71
2023/07/05 05:32:39;;;;;;;0.00;0.00;;;17.00;99.90;;;;;;7379018;19;20167;-72
2023/07/05 05:35:09;;;;;;;0.00;0.00;;;17.00;99.90;;;;;;7377215;19;20636;-72
2023/07/05 05:37:38;;;;;;;0.07;0.07;;;17.00;99.90;;;;;;7378244;19;20157;-69
2023/07/05 05:40:08;;;;;;;0.10;0.10;;;17.10;99.90;;;;;;7375184;19;20167;-68
2023/07/05 05:42:38;;;;;;;0.00;0.00;;;17.10;99.90;;;;;;7378025;19;20144;-66
2023/07/05 05:45:11;;;;;;;0.00;0.00;;;17.10;99.90;;;;;;7373628;19;20217;-68
2023/07/05 05:47:40;;;;;;;0.00;0.00;;;17.10;99.90;;;;;;7378816;19;20156;-68
2023/07/05 05:50:09;;;;;;;0.00;0.00;;;17.10;99.90;;;;;;7375132;19;20163;-68
2023/07/05 05:52:38;;;;;;;0.00;0.00;;;17.10;99.90;;;;;;7378313;19;20160;-69
2023/07/05 05:55:08;;;;;;;0.10;0.10;;;17.10;99.90;;;;;;7374055;19;20352;-68
2023/07/05 05:57:37;;;;;;;0.00;0.00;;;17.10;99.90;;;;;;7378165;19;20159;-68
2023/07/05 06:00:09;;;;;;;0.10;0.10;;;17.10;99.90;;;;;;7373830;19;20256;-68
2023/07/05 06:02:40;;;;;;;0.00;0.00;;;17.20;99.90;;;;;;7376717;19;20261;-69
2023/07/05 06:05:10;;;;;;;0.00;0.00;;;17.20;99.90;;;;;;7373079;19;20160;-68
2023/07/05 06:07:39;;;;;;;0.00;0.00;;;17.20;99.90;;;;;;7376702;19;20151;-69
2023/07/05 06:10:09;;;;;;;0.00;0.00;;;17.30;99.90;;;;;;7376868;19;20153;-68
2023/07/05 06:12:41;;;;;;;0.00;0.00;;;17.30;99.90;;;;;;7376643;19;20161;-67
2023/07/05 06:15:12;;;;;;;0.00;0.00;;;17.30;99.90;;;;;;7375191;19;20148;-68
2023/07/05 06:17:44;;;;;;;0.00;0.00;;;17.40;99.90;;;;;;7376999;19;20156;-67
2023/07/05 06:20:14;;;;;;;0.00;0.00;;;17.40;99.90;;;;;;7374109;19;20194;-68
2023/07/05 06:22:43;;;;;;;0.00;0.00;;;17.40;99.90;;;;;;7376719;19;20155;-68
2023/07/05 06:25:13;;;;;;;0.00;0.00;;;17.40;99.90;;;;;;7376506;19;20152;-68
2023/07/05 06:27:42;;;;;;;0.00;0.00;;;17.40;99.90;;;;;;7376622;19;20186;-69
2023/07/05 06:30:12;;;;;;;0.00;0.00;;;17.40;99.90;;;;;;7375679;19;20163;-68
2023/07/05 06:32:40;;;;;;;0.00;0.00;;;17.40;99.90;;;;;;7378071;19;20261;-69
2023/07/05 06:35:12;;;;;;;0.00;0.00;;;17.50;99.90;;;;;;7374817;19;20144;-69
2023/07/05 06:37:41;;;;;;;0.00;0.00;;;17.50;99.90;;;;;;7376057;19;20164;-68
2023/07/05 06:40:12;;;;;;;0.00;0.00;;;17.50;99.90;;;;;;7372616;19;20174;-68
2023/07/05 06:42:40;;;;;;;0.00;0.00;;;17.50;99.90;;;;;;7376497;19;20168;-69
2023/07/05 06:45:15;;;;;;;0.00;0.00;;;17.60;99.90;;;;;;7376035;19;20175;-69
2023/07/05 06:47:45;;;;;;;0.00;0.00;;;17.60;99.90;;;;;;7375738;19;20156;-68
2023/07/05 06:50:17;;;;;;;0.00;0.00;;;17.70;99.90;;;;;;7375048;19;20148;-68
2023/07/05 06:52:46;;;;;;;0.00;0.00;;;17.70;99.90;;;;;;7375118;19;20153;-68
2023/07/05 06:55:14;;;;;;;0.00;0.00;;;17.80;99.90;;;;;;7373849;19;20265;-69
2023/07/05 06:57:43;;;;;;;0.00;0.00;;;18.00;99.90;;;;;;7376772;19;20153;-69
2023/07/05 07:00:14;;;;;;;0.00;0.00;;;18.10;99.90;;;;;;7370205;19;20153;-68
2023/07/05 07:02:43;;;;;;;0.00;0.00;;;18.20;99.90;;;;;;7375201;19;20157;-69
2023/07/05 07:05:11;;;;;;;0.00;0.00;;;18.30;99.90;;;;;;7372619;19;20141;-67
2023/07/05 07:07:43;;;;;;;0.00;0.00;;;18.50;99.90;;;;;;7375899;19;20188;-68
2023/07/05 07:10:12;;;;;;;0.00;0.00;;;18.50;99.90;;;;;;7374890;19;20149;-68
2023/07/05 07:12:41;;;;;;;0.00;0.00;;;18.60;99.90;;;;;;7374367;19;20160;-68
2023/07/05 07:15:10;;;;;;;0.00;0.00;;;18.70;99.90;;;;;;7373915;19;20153;-69
2023/07/05 07:17:39;;;;;;;0.00;0.00;;;18.70;99.90;;;;;;7375148;19;20149;-69
2023/07/05 07:20:10;;;;;;;0.00;0.00;;;18.90;99.90;;;;;;7372536;19;20152;-68
2023/07/05 07:22:39;;;;;;;0.00;0.00;;;19.00;99.90;;;;;;7376352;19;20156;-69
2023/07/05 07:25:11;;;;;;;0.00;0.00;;;19.10;99.90;;;;;;7371073;19;20176;-68
2023/07/05 07:27:40;;;;;;;0.00;0.00;;;19.30;99.90;;;;;;7376054;19;20170;-67
2023/07/05 07:30:10;;;;;;;0.00;0.00;;;19.50;99.90;;;;;;7372702;19;20174;-69
2023/07/05 07:32:39;;;;;;;0.00;0.00;;;19.70;99.90;;;;;;7375135;19;20159;-69
2023/07/05 07:35:09;;;;;;;0.00;0.00;;;20.00;99.90;;;;;;7370624;19;20605;-68
2023/07/05 07:37:37;;;;;;;0.00;0.00;;;20.10;99.90;;;;;;7375129;19;20153;-69
2023/07/05 07:40:10;;;;;;;0.00;0.00;;;20.30;99.90;;;;;;7371442;19;20184;-69
2023/07/05 07:42:39;;;;;;;0.00;0.00;;;20.40;99.90;;;;;;7375863;19;20159;-68
2023/07/05 07:45:09;;;;;;;0.00;0.00;;;20.60;99.90;;;;;;7370497;19;20187;-69
2023/07/05 07:47:38;;;;;;;0.00;0.00;;;20.70;99.90;;;;;;7375721;19;20148;-68
2023/07/05 07:50:12;;;;;;;0.00;0.00;;;20.70;99.90;;;;;;7373826;19;20156;-69
2023/07/05 07:52:42;;;;;;;0.00;0.00;;;20.80;99.90;;;;;;7375000;19;20155;-69
2023/07/05 07:55:13;;;;;;;0.00;0.00;;;21.00;99.90;;;;;;7372945;19;20840;-69
2023/07/05 07:57:43;;;;;;;0.00;0.00;;;21.20;99.90;;;;;;7374452;19;20148;-68
2023/07/05 08:00:13;;;;;;;0.00;0.00;;;21.30;99.90;;;;;;7370789;19;20148;-70
2023/07/05 08:02:41;;;;;;;0.00;0.00;;;21.50;99.90;;;;;;7375845;19;20141;-70
2023/07/05 08:05:16;;;;;;;0.00;0.00;;;21.60;99.90;;;;;;7372357;19;20152;-68
2023/07/05 08:07:45;;;;;;;0.00;0.00;;;21.70;99.90;;;;;;7373267;19;20140;-69
2023/07/05 08:10:16;;;;;;;0.00;0.00;;;21.70;99.90;;;;;;7372852;19;20153;-70
2023/07/05 08:12:45;;;;;;;0.00;0.00;;;21.90;99.90;;;;;;7372765;19;20149;-69
2023/07/05 08:15:14;;;;;;;0.00;0.00;;;22.00;99.90;;;;;;7372031;19;20153;-68
2023/07/05 08:17:43;;;;;;;0.00;0.00;;;22.10;99.90;;;;;;7372801;19;20159;-71
2023/07/05 08:20:13;;;;;;;0.00;0.00;;;22.10;99.90;;;;;;7369777;19;20145;-69
2023/07/05 08:22:42;;;;;;;0.00;0.00;;;22.20;99.90;;;;;;7373357;19;20153;-69
2023/07/05 08:25:11;;;;;;;0.00;0.00;;;22.10;99.90;;;;;;7371947;19;20156;-69
2023/07/05 08:27:44;;;;;;;0.00;0.00;;;22.10;99.90;;;;;;7373002;19;20723;-70
2023/07/05 08:30:13;;;;;;;0.00;0.00;;;22.10;99.90;;;;;;7371709;19;20152;-71
2023/07/05 08:32:42;;;;;;;0.00;0.00;;;22.00;99.90;;;;;;7373146;19;20156;-70
2023/07/05 08:35:12;;;;;;;0.00;0.00;;;22.00;99.90;;;;;;7370589;19;20176;-70
2023/07/05 08:37:49;;;;;;;0.00;0.00;;;22.00;99.90;;;;;;7374104;19;20157;-69
2023/07/05 08:40:18;;;;;;;0.00;0.00;;;22.10;99.90;;;;;;7369474;19;20152;-69
2023/07/05 08:43:00;;;;;;;0.00;0.00;;;22.20;99.90;;;;;;7373939;19;20228;-69
2023/07/05 08:45:32;;;;;;;0.00;0.00;;;22.30;99.90;;;;;;7372287;19;20153;-69
2023/07/05 08:48:04;;;;;;;0.00;0.00;;;22.40;99.90;;;;;;7372276;19;20145;-70
2023/07/05 08:50:36;;;;;;;0.00;0.00;;;22.40;99.90;;;;;;7372769;19;20148;-69
2023/07/05 08:53:09;;;;;;;0.00;0.00;;;22.40;99.90;;;;;;7371194;19;20207;-70
2023/07/05 08:55:50;;;;;;;0.00;0.00;;;22.40;99.90;;;;;;7371714;19;20144;-69
2023/07/05 08:58:26;;;;;;;0.00;0.00;;;22.30;99.90;;;;;;7372277;19;20168;-70
2023/07/05 09:01:00;;;;;;;0.00;0.00;;;22.30;99.90;;;;;;7371238;19;20153;-68
2023/07/05 09:03:31;;;;;;;0.00;0.00;;;22.20;99.90;;;;;;7371180;19;20213;-69
2023/07/05 09:06:18;;;;;;;0.00;0.00;;;22.20;99.90;;;;;;7368877;19;20152;-70
2023/07/05 09:08:58;;;;;;;0.00;0.00;;;22.20;99.90;;;;;;7371984;19;20170;-67
2023/07/05 09:11:40;;;;;;;0.00;0.00;;;22.20;99.90;;;;;;7371815;19;20172;-69
2023/07/05 09:14:20;;;;;;;0.00;0.00;;;22.30;99.90;;;;;;7370024;19;20184;-69
2023/07/05 09:16:57;;;;;;;0.00;0.00;;;22.40;99.90;;;;;;7371840;19;20148;-69
2023/07/05 09:19:40;;;;;;;0.00;0.00;;;22.50;99.90;;;;;;7371008;19;20152;-69
2023/07/05 09:22:13;;;;;;;0.00;0.00;;;22.50;99.90;;;;;;7371447;19;20159;-69
2023/07/05 09:24:43;;;;;;;0.00;0.00;;;22.50;99.90;;;;;;7372914;19;20180;-68
2023/07/05 09:27:20;;;;;;;0.00;0.00;;;22.50;99.90;;;;;;7377895;19;20153;-68
2023/07/05 09:29:57;;;;;;;0.00;0.00;;;22.50;99.90;;;;;;7375418;19;20160;-70
2023/07/05 09:32:30;;;;;;;0.00;0.00;;;22.60;99.90;;;;;;7378416;19;20148;-69
2023/07/05 09:35:01;;;;;;;0.00;0.00;;;22.60;99.90;;;;;;7374121;19;20180;-68
2023/07/05 09:37:35;;;;;;;0.00;0.00;;;22.70;99.90;;;;;;7379293;19;20148;-69
2023/07/05 09:40:17;;;;;;;0.00;0.00;;;22.80;99.90;;;;;;7376843;19;20152;-69
2023/07/05 09:42:51;;;;;;;0.00;0.00;;;23.00;99.90;;;;;;7376014;19;20161;-69
2023/07/05 09:45:22;;;;;;;0.00;0.00;;;23.30;99.90;;;;;;7376954;19;20186;-68
2023/07/05 09:47:55;;;;;;;0.00;0.00;;;23.50;99.90;;;;;;7379576;19;20152;-68
2023/07/05 09:50:25;;;;;;;0.00;0.00;;;23.60;99.90;;;;;;7377048;19;20735;-68
2023/07/05 09:52:55;;;;;;;0.00;0.00;;;23.80;99.90;;;;;;7377902;19;20173;-68
2023/07/05 09:55:27;;;;;;;0.00;0.00;;;24.00;99.90;;;;;;7376850;19;20144;-68
2023/07/05 09:57:56;;;;;;;0.00;0.00;;;24.20;99.90;;;;;;7378027;19;20145;-69
2023/07/05 10:00:34;;;;;;;0.00;0.00;;;24.30;99.90;;;;;;7375035;19;20145;-69
2023/07/05 10:03:08;;;;;;;0.00;0.00;;;24.20;99.90;;;;;;7375443;19;20179;-69
2023/07/05 10:05:38;;;;;;;0.00;0.00;;;24.20;99.90;;;;;;7377086;19;20144;-69
2023/07/05 10:08:17;;;;;;;0.00;0.00;;;24.20;99.90;;;;;;7376090;19;20153;-69
2023/07/05 10:10:46;;;;;;;0.00;0.00;;;24.10;99.90;;;;;;7377175;19;20152;-68
2023/07/05 10:13:16;;;;;;;0.00;0.00;;;24.00;99.90;;;;;;7375079;19;20180;-69
2023/07/05 10:15:50;;;;;;;0.00;0.00;;;23.90;99.90;;;;;;7376566;19;20152;-68
2023/07/05 10:18:34;;;;;;;0.00;0.00;;;23.80;99.90;;;;;;7376521;19;20164;-69
2023/07/05 10:21:05;;;;;;;0.00;0.00;;;23.50;99.90;;;;;;7368763;19;20168;-70
2023/07/05 10:23:35;;;;;;;0.00;0.00;;;23.00;99.90;;;;;;7376831;19;20180;-70
2023/07/05 10:26:07;;;;;;;0.00;0.00;;;22.40;99.90;;;;;;7374982;19;20152;-70
2023/07/05 10:28:37;;;;;;;0.00;0.00;;;21.90;99.90;;;;;;7376021;19;20152;-70
2023/07/05 10:31:26;;;;;;;0.00;0.00;;;21.50;99.90;;;;;;7376993;19;20141;-70
2023/07/05 10:34:07;;;;;;;0.00;0.00;;;21.30;99.90;;;;;;7374653;19;20264;-70
2023/07/05 10:36:36;;;;;;;0.00;0.00;;;21.40;99.90;;;;;;7374440;19;20501;-70
2023/07/05 10:39:11;;;;;;;0.00;0.00;;;21.70;99.90;;;;;;7375016;19;20163;-70
2023/07/05 10:41:42;;;;;;;0.00;0.00;;;22.00;99.90;;;;;;7370660;19;20148;-68
2023/07/05 10:44:19;;;;;;;0.00;0.00;;;22.20;99.90;;;;;;7374421;19;20232;-69
2023/07/05 10:46:51;;;;;;;0.00;0.00;;;22.30;99.90;;;;;;7376531;19;20152;-69
2023/07/05 10:49:22;;;;;;;0.00;0.00;;;22.50;99.90;;;;;;7374156;19;20169;-68
2023/07/05 10:51:54;;;;;;;0.00;0.00;;;22.60;99.90;;;;;;7375559;19;20137;-68
2023/07/05 10:54:30;;;;;;;0.00;0.00;;;22.80;99.90;;;;;;7372211;19;20187;-69
2023/07/05 10:57:00;;;;;;;0.00;0.00;;;23.10;99.90;;;;;;7375725;19;20182;-68
2023/07/05 10:59:36;;;;;;;0.00;0.00;;;23.20;99.90;;;;;;7375530;19;20137;-69
2023/07/05 11:02:24;;;;;;;0.00;0.00;;;23.40;99.90;;;;;;7374850;19;20144;-70
2023/07/05 11:04:55;;;;;;;0.00;0.00;;;23.50;99.90;;;;;;7373081;19;20180;-69
2023/07/05 11:07:27;;;;;;;0.00;0.00;;;23.40;99.90;;;;;;7376382;19;20152;-69
2023/07/05 11:10:07;;;;;;;0.00;0.00;;;23.30;99.90;;;;;;7375587;19;20156;-69
2023/07/05 11:12:36;;;;;;;0.00;0.00;;;23.10;99.90;;;;;;7376875;19;20262;-70
2023/07/05 11:15:06;;;;;;;0.00;0.00;;;23.00;99.90;;;;;;7370721;19;20180;-69
2023/07/05 11:17:39;;;;;;;0.00;0.00;;;22.90;99.90;;;;;;7377025;19;20153;-70
2023/07/05 11:20:46;;;;;;;0.00;0.00;;;23.10;99.90;;;;;;7373572;19;20153;-69
2023/07/05 11:23:36;;;;;;;0.00;0.00;;;23.40;99.90;;;;;;7373891;19;20171;-69
2023/07/05 11:26:05;;;;;;;0.00;0.00;;;23.60;99.90;;;;;;7372895;19;20163;-70
2023/07/05 11:28:38;;;;;;;0.00;0.00;;;23.80;99.90;;;;;;7375320;19;20157;-69
2023/07/05 11:31:07;;;;;;;0.00;0.00;;;24.00;99.90;;;;;;7373707;19;20153;-70
2023/07/05 11:33:39;;;;;;;0.00;0.00;;;24.10;99.90;;;;;;7375181;19;20184;-71
2023/07/05 11:36:37;;;;;;;0.00;0.00;;;24.20;99.90;;;;;;7372504;19;20180;-69
2023/07/05 11:39:06;;;;;;;0.00;0.00;;;24.20;99.90;;;;;;7373576;19;20157;-69
2023/07/05 11:41:38;;;;;;;0.00;0.00;;;24.30;99.90;;;;;;7370421;19;20176;-69
2023/07/05 11:44:25;;;;;;;0.00;0.00;;;24.30;99.90;;;;;;7373259;19;20214;-68
2023/07/05 11:46:54;;;;;;;0.00;0.00;;;24.20;99.90;;;;;;7373731;19;20187;-68
2023/07/05 11:49:41;;;;;;;0.00;0.00;;;24.30;99.90;;;;;;7373618;19;20160;-67
2023/07/05 11:52:20;;;;;;;0.00;0.00;;;24.30;99.90;;;;;;7375802;19;20587;-69
2023/07/05 11:55:02;;;;;;;0.00;0.00;;;24.40;99.90;;;;;;7372722;19;20180;-69
2023/07/05 11:57:37;;;;;;;0.00;0.00;;;24.50;99.90;;;;;;7375129;19;20157;-69
2023/07/05 12:00:14;;;;;;;0.00;0.00;;;24.60;99.90;;;;;;7372448;19;20168;-69
2023/07/05 12:02:51;;;;;;;0.00;0.00;;;24.70;99.90;;;;;;7375961;19;20140;-70
2023/07/05 12:05:25;;;;;;;0.00;0.00;;;;;;;;;;7372048;19;20153;-69
2023/07/05 12:08:00;;;;;;;0.00;0.00;;;24.70;99.90;;;;;;7373705;19;20188;-70
2023/07/05 12:10:32;;;;;;;0.00;0.00;;;24.70;99.90;;;;;;7372885;19;20157;-70
2023/07/05 12:13:02;;;;;;;0.00;0.00;;;24.80;99.90;;;;;;7372103;19;20148;-69
2023/07/05 12:15:31;;;;;;;0.00;0.00;;;24.80;99.90;;;;;;7372073;19;20148;-69
2023/07/05 12:18:02;;;;;;;0.00;0.00;;;24.80;99.90;;;;;;7372999;19;20188;-70
2023/07/05 12:20:37;;;;;;;0.00;0.00;;;;;;;;;;7370691;19;20152;-68
2023/07/05 12:23:08;;;;;;;0.00;0.00;;;24.70;99.90;;;;;;7373218;19;20184;-70
2023/07/05 12:25:37;;;;;;;0.00;0.00;;;24.70;99.90;;;;;;7373408;19;20232;-70
2023/07/05 12:28:08;;;;;;;0.00;0.00;;;24.70;99.90;;;;;;7373823;19;20152;-68
2023/07/05 12:30:42;;;;;;;0.00;0.00;;;24.70;99.90;;;;;;7372725;19;20167;-69
2023/07/05 12:33:22;;;;;;;0.00;0.00;;;24.70;99.90;;;;;;7371687;19;20199;-70
2023/07/05 12:36:14;;;;;;;0.00;0.00;;;24.70;99.90;;;;;;7372649;19;20156;-69
2023/07/05 12:38:44;;;;;;;0.00;0.00;;;;;;;;;;7372006;19;20156;-69
2023/07/05 12:41:18;;;;;;;0.00;0.00;;;;;;;;;;7372110;19;20168;-70
2023/07/05 12:43:47;;;;;;;0.00;0.00;;;;;;;;;;7372767;19;20193;-69
2023/07/05 12:46:19;;;;;;;0.00;0.00;;;24.40;99.90;;;;;;7370872;19;20157;-69
2023/07/05 12:48:48;;;;;;;0.00;0.00;;;24.30;99.90;;;;;;7373338;19;20153;-70
2023/07/05 12:51:22;;;;;;;0.00;0.00;;;;;;;;;;7371599;19;20224;-70
2023/07/05 12:53:51;;;;;;;0.00;0.00;;;24.20;99.90;;;;;;7372651;19;20190;-70
2023/07/05 12:56:23;;;;;;;0.00;0.00;;;24.20;99.90;;;;;;7371606;19;20193;-70
2023/07/05 12:58:56;;;;;;;0.00;0.00;;;24.20;99.90;;;;;;7375051;19;20157;-68
2023/07/05 13:01:32;;;;;;;0.00;0.00;;;24.20;99.90;;;;;;7376675;19;20156;-70
2023/07/05 13:04:02;;;;;;;0.00;0.00;;;24.20;99.90;;;;;;7378269;19;20240;-70
2023/07/05 13:06:36;;;;;;;0.00;0.00;;;24.20;99.90;;;;;;7377221;19;20149;-70
2023/07/05 13:09:07;;;;;;;0.00;0.00;;;24.20;99.90;;;;;;7379506;19;20140;-70
2023/07/05 13:11:36;;;;;;;0.00;0.00;;;24.20;99.90;;;;;;7379284;19;20675;-70
2023/07/05 13:14:07;;;;;;;0.00;0.00;;;24.10;99.90;;;;;;7377114;19;20190;-68
2023/07/05 13:16:50;;;;;;;0.00;0.00;;;24.00;99.90;;;;;;7377830;19;20160;-69